sensor_id;sensor_type;location;lat;lon;timestamp;pressure;altitude;pressure_sealevel;temperature;humidity
31121;BME280;17770;45.966;13.632;2023-04-26T00:00:33;100171.09;;;18.88;56.96
31121;BME280;17770;45.966;13.632;2023-04-26T00:02:59;100165.03;;;18.87;56.96
31121;BME280;17770;45.966;13.632;2023-04-26T00:05:25;100166.81;;;18.87;57.10
31121;BME280;17770;45.966;13.632;2023-04-26T00:07:52;100172.97;;;18.86;56.97
31121;BME280;17770;45.966;13.632;2023-04-26T00:10:18;100160.84;;;18.85;56.83
31121;BME280;17770;45.966;13.632;2023-04-26T00:12:44;100163.34;;;18.86;56.83
31121;BME280;17770;45.966;13.632;2023-04-26T00:15:10;100159.19;;;18.84;56.80
31121;BME280;17770;45.966;13.632;2023-04-26T00:17:36;100169.63;;;18.84;56.77
31121;BME280;17770;45.966;13.632;2023-04-26T00:20:02;100169.63;;;18.84;56.73
31121;BME280;17770;45.966;13.632;2023-04-26T00:22:31;100163.56;;;18.83;56.97
31121;BME280;17770;45.966;13.632;2023-04-26T00:24:57;100167.19;;;18.81;56.76
31121;BME280;17770;45.966;13.632;2023-04-26T00:27:22;100168.03;;;18.81;57.01
31121;BME280;17770;45.966;13.632;2023-04-26T00:29:48;100162.94;;;18.80;56.85
31121;BME280;17770;45.966;13.632;2023-04-26T00:32:14;100167.31;;;18.79;56.78
31121;BME280;17770;45.966;13.632;2023-04-26T00:34:40;100163.78;;;18.80;56.84
31121;BME280;17770;45.966;13.632;2023-04-26T00:37:06;100168.25;;;18.78;56.81
31121;BME280;17770;45.966;13.632;2023-04-26T00:39:32;100172.63;;;18.78;56.52
31121;BME280;17770;45.966;13.632;2023-04-26T00:41:58;100181.31;;;18.78;56.85
31121;BME280;17770;45.966;13.632;2023-04-26T00:44:24;100177.03;;;18.77;56.94
31121;BME280;17770;45.966;13.632;2023-04-26T00:46:51;100184.03;;;18.77;56.97
31121;BME280;17770;45.966;13.632;2023-04-26T00:49:17;100189.25;;;18.77;56.73
31121;BME280;17770;45.966;13.632;2023-04-26T00:51:44;100190.22;;;18.76;56.67
31121;BME280;17770;45.966;13.632;2023-04-26T00:54:10;100195.44;;;18.76;56.85
31121;BME280;17770;45.966;13.632;2023-04-26T00:56:37;100187.66;;;18.74;56.98
31121;BME280;17770;45.966;13.632;2023-04-26T00:59:03;100188.53;;;18.75;56.95
31121;BME280;17770;45.966;13.632;2023-04-26T01:01:29;100183.41;;;18.73;56.75
31121;BME280;17770;45.966;13.632;2023-04-26T01:03:55;100186.97;;;18.72;56.45
31121;BME280;17770;45.966;13.632;2023-04-26T01:06:21;100185.16;;;18.73;56.76
31121;BME280;17770;45.966;13.632;2023-04-26T01:08:49;100187.88;;;18.71;56.78
31121;BME280;17770;45.966;13.632;2023-04-26T01:11:16;100197.50;;;18.71;56.86
31121;BME280;17770;45.966;13.632;2023-04-26T01:13:45;100197.59;;;18.69;56.92
31121;BME280;17770;45.966;13.632;2023-04-26T01:16:11;100198.44;;;18.70;56.70
31121;BME280;17770;45.966;13.632;2023-04-26T01:18:39;100201.16;;;18.68;56.88
31121;BME280;17770;45.966;13.632;2023-04-26T01:21:05;100199.47;;;18.67;56.71
31121;BME280;17770;45.966;13.632;2023-04-26T01:23:31;100202.09;;;18.67;56.69
31121;BME280;17770;45.966;13.632;2023-04-26T01:25:57;100197.78;;;18.66;56.67
31121;BME280;17770;45.966;13.632;2023-04-26T01:28:23;100202.19;;;18.66;56.79
31121;BME280;17770;45.966;13.632;2023-04-26T01:30:49;100203.97;;;18.65;56.56
31121;BME280;17770;45.966;13.632;2023-04-26T01:33:15;100199.59;;;18.66;56.53
31121;BME280;17770;45.966;13.632;2023-04-26T01:35:41;100193.63;;;18.64;56.66
31121;BME280;17770;45.966;13.632;2023-04-26T01:38:07;100197.06;;;18.64;56.67
31121;BME280;17770;45.966;13.632;2023-04-26T01:40:33;100187.53;;;18.63;56.71
31121;BME280;17770;45.966;13.632;2023-04-26T01:42:59;100196.44;;;18.61;56.63
31121;BME280;17770;45.966;13.632;2023-04-26T01:45:27;100190.25;;;18.62;56.71
31121;BME280;17770;45.966;13.632;2023-04-26T01:48:13;100192.97;;;18.60;56.61
31121;BME280;17770;45.966;13.632;2023-04-26T01:50:39;100196.53;;;18.59;56.73
31121;BME280;17770;45.966;13.632;2023-04-26T01:53:05;100193.94;;;18.59;56.67
31121;BME280;17770;45.966;13.632;2023-04-26T01:55:32;100202.69;;;18.58;57.01
31121;BME280;17770;45.966;13.632;2023-04-26T01:57:58;100200.06;;;18.58;56.73
31121;BME280;17770;45.966;13.632;2023-04-26T02:00:25;100199.31;;;18.56;56.57
31121;BME280;17770;45.966;13.632;2023-04-26T02:02:54;100213.22;;;18.57;56.86
31121;BME280;17770;45.966;13.632;2023-04-26T02:05:22;100219.50;;;18.54;56.70
31121;BME280;17770;45.966;13.632;2023-04-26T02:07:49;100218.56;;;18.55;56.81
31121;BME280;17770;45.966;13.632;2023-04-26T02:10:15;100218.56;;;18.55;56.70
31121;BME280;17770;45.966;13.632;2023-04-26T02:12:41;100221.16;;;18.55;56.50
31121;BME280;17770;45.966;13.632;2023-04-26T02:15:07;100219.50;;;18.54;56.48
31121;BME280;17770;45.966;13.632;2023-04-26T02:17:33;100222.22;;;18.53;56.69
31121;BME280;17770;45.966;13.632;2023-04-26T02:19:59;100231.81;;;18.52;56.64
31121;BME280;17770;45.966;13.632;2023-04-26T02:22:25;100231.81;;;18.52;56.50
31121;BME280;17770;45.966;13.632;2023-04-26T02:24:51;100223.13;;;18.52;56.75
31121;BME280;17770;45.966;13.632;2023-04-26T02:27:18;100218.97;;;18.49;56.58
31121;BME280;17770;45.966;13.632;2023-04-26T02:29:44;100229.41;;;18.49;56.63
31121;BME280;17770;45.966;13.632;2023-04-26T02:32:12;100234.72;;;18.48;56.51
31121;BME280;17770;45.966;13.632;2023-04-26T02:34:38;100226.03;;;18.47;56.46
31121;BME280;17770;45.966;13.632;2023-04-26T02:37:03;100229.50;;;18.48;56.61
31121;BME280;17770;45.966;13.632;2023-04-26T02:39:29;100229.50;;;18.48;56.39
31121;BME280;17770;45.966;13.632;2023-04-26T02:41:56;100236.50;;;18.47;56.61
31121;BME280;17770;45.966;13.632;2023-04-26T02:44:22;100234.81;;;18.46;56.44
31121;BME280;17770;45.966;13.632;2023-04-26T02:46:48;100236.59;;;18.46;56.68
31121;BME280;17770;45.966;13.632;2023-04-26T02:49:14;100239.22;;;18.46;56.70
31121;BME280;17770;45.966;13.632;2023-04-26T02:51:40;100237.50;;;18.45;56.70
31121;BME280;17770;45.966;13.632;2023-04-26T02:54:06;100237.50;;;18.45;56.45
31121;BME280;17770;45.966;13.632;2023-04-26T02:56:32;100241.06;;;18.44;56.46
31121;BME280;17770;45.966;13.632;2023-04-26T02:58:57;100243.69;;;18.44;56.57
31121;BME280;17770;45.966;13.632;2023-04-26T03:01:23;100248.91;;;18.44;56.46
31121;BME280;17770;45.966;13.632;2023-04-26T03:03:49;100249.84;;;18.43;56.30
31121;BME280;17770;45.966;13.632;2023-04-26T03:06:16;100250.78;;;18.42;56.40
31121;BME280;17770;45.966;13.632;2023-04-26T03:08:42;100248.16;;;18.42;56.38
31121;BME280;17770;45.966;13.632;2023-04-26T03:11:08;100248.25;;;18.40;56.37
31121;BME280;17770;45.966;13.632;2023-04-26T03:13:33;100254.44;;;18.39;56.60
31121;BME280;17770;45.966;13.632;2023-04-26T03:15:59;100257.91;;;18.38;56.34
31121;BME280;17770;45.966;13.632;2023-04-26T03:18:25;100253.53;;;18.39;56.47
31121;BME280;17770;45.966;13.632;2023-04-26T03:20:51;100259.72;;;18.38;56.44
31121;BME280;17770;45.966;13.632;2023-04-26T03:23:17;100258.88;;;18.37;56.38
31121;BME280;17770;45.966;13.632;2023-04-26T03:25:44;100257.22;;;18.36;56.16
31121;BME280;17770;45.966;13.632;2023-04-26T03:28:10;100259.88;;;18.35;56.49
31121;BME280;17770;45.966;13.632;2023-04-26T03:30:36;100251.25;;;18.34;56.54
31121;BME280;17770;45.966;13.632;2023-04-26T03:33:02;100262.59;;;18.33;56.44
31121;BME280;17770;45.966;13.632;2023-04-26T03:35:28;100265.22;;;18.33;56.22
31121;BME280;17770;45.966;13.632;2023-04-26T03:37:54;100262.69;;;18.32;56.21
31121;BME280;17770;45.966;13.632;2023-04-26T03:40:20;100254.97;;;18.30;56.78
31121;BME280;17770;45.966;13.632;2023-04-26T03:42:46;100269.72;;;18.31;56.30
31121;BME280;17770;45.966;13.632;2023-04-26T03:45:14;100270.72;;;18.29;56.48
31121;BME280;17770;45.966;13.632;2023-04-26T03:47:39;100274.19;;;18.29;56.44
31121;BME280;17770;45.966;13.632;2023-04-26T03:50:06;100275.09;;;18.28;56.42
31121;BME280;17770;45.966;13.632;2023-04-26T03:52:32;100270.81;;;18.27;56.47
31121;BME280;17770;45.966;13.632;2023-04-26T03:54:58;100268.31;;;18.26;56.40
31121;BME280;17770;45.966;13.632;2023-04-26T03:57:24;100276.25;;;18.24;56.32
31121;BME280;17770;45.966;13.632;2023-04-26T03:59:50;100271.03;;;18.24;56.32
31121;BME280;17770;45.966;13.632;2023-04-26T04:02:16;100272.88;;;18.22;56.41
31121;BME280;17770;45.966;13.632;2023-04-26T04:04:42;100272.78;;;18.23;56.51
31121;BME280;17770;45.966;13.632;2023-04-26T04:07:08;100278.94;;;18.23;56.42
31121;BME280;17770;45.966;13.632;2023-04-26T04:09:34;100275.59;;;18.20;56.30
31121;BME280;17770;45.966;13.632;2023-04-26T04:12:00;100268.69;;;18.19;56.14
31121;BME280;17770;45.966;13.632;2023-04-26T04:14:27;100273.06;;;18.19;56.43
31121;BME280;17770;45.966;13.632;2023-04-26T04:16:54;100265.25;;;18.19;56.35
31121;BME280;17770;45.966;13.632;2023-04-26T04:19:20;100269.63;;;18.18;56.25
31121;BME280;17770;45.966;13.632;2023-04-26T04:21:46;100277.44;;;18.18;56.29
31121;BME280;17770;45.966;13.632;2023-04-26T04:24:12;100273.16;;;18.17;56.12
31121;BME280;17770;45.966;13.632;2023-04-26T04:26:39;100277.53;;;18.17;56.12
31121;BME280;17770;45.966;13.632;2023-04-26T04:29:05;100272.31;;;18.17;56.13
31121;BME280;17770;45.966;13.632;2023-04-26T04:31:34;100270.66;;;18.16;56.30
31121;BME280;17770;45.966;13.632;2023-04-26T04:34:00;100273.28;;;18.16;56.11
31121;BME280;17770;45.966;13.632;2023-04-26T04:36:26;100271.56;;;18.15;55.99
31121;BME280;17770;45.966;13.632;2023-04-26T04:38:52;100279.41;;;18.15;56.13
31121;BME280;17770;45.966;13.632;2023-04-26T04:41:19;100278.66;;;18.13;56.16
31121;BME280;17770;45.966;13.632;2023-04-26T04:43:48;100280.34;;;18.14;56.16
31121;BME280;17770;45.966;13.632;2023-04-26T04:46:14;100277.75;;;18.14;56.25
31121;BME280;17770;45.966;13.632;2023-04-26T04:48:40;100283.06;;;18.12;56.32
31121;BME280;17770;45.966;13.632;2023-04-26T04:51:06;100292.75;;;18.10;56.19
31121;BME280;17770;45.966;13.632;2023-04-26T04:53:34;100291.00;;;18.11;55.98
31121;BME280;17770;45.966;13.632;2023-04-26T04:56:00;100299.72;;;18.10;56.02
31121;BME280;17770;45.966;13.632;2023-04-26T04:58:26;100304.03;;;18.11;55.98
31121;BME280;17770;45.966;13.632;2023-04-26T05:00:52;100294.50;;;18.10;56.05
31121;BME280;17770;45.966;13.632;2023-04-26T05:03:25;100312.78;;;18.10;55.98
31121;BME280;17770;45.966;13.632;2023-04-26T05:05:51;100314.56;;;18.09;55.91
31121;BME280;17770;45.966;13.632;2023-04-26T05:08:17;100319.88;;;18.08;55.87
31121;BME280;17770;45.966;13.632;2023-04-26T05:10:44;100319.88;;;18.08;55.95
31121;BME280;17770;45.966;13.632;2023-04-26T05:13:10;100330.34;;;18.08;55.89
31121;BME280;17770;45.966;13.632;2023-04-26T05:15:37;100330.34;;;18.08;55.94
31121;BME280;17770;45.966;13.632;2023-04-26T05:18:03;100335.56;;;18.08;56.02
31121;BME280;17770;45.966;13.632;2023-04-26T05:20:29;100340.84;;;18.06;55.90
31121;BME280;17770;45.966;13.632;2023-04-26T05:22:55;100353.06;;;18.06;55.88
31121;BME280;17770;45.966;13.632;2023-04-26T05:25:21;100349.59;;;18.05;55.78
31121;BME280;17770;45.966;13.632;2023-04-26T05:27:49;100349.69;;;18.04;55.77
31121;BME280;17770;45.966;13.632;2023-04-26T05:30:25;100352.31;;;18.04;56.04
31121;BME280;17770;45.966;13.632;2023-04-26T05:33:11;100349.69;;;18.04;55.69
31121;BME280;17770;45.966;13.632;2023-04-26T05:35:50;100352.50;;;18.01;55.96
31121;BME280;17770;45.966;13.632;2023-04-26T05:38:19;100353.31;;;18.01;55.97
31121;BME280;17770;45.966;13.632;2023-04-26T05:40:45;100363.84;;;18.00;55.99
31121;BME280;17770;45.966;13.632;2023-04-26T05:43:13;100359.47;;;18.00;55.85
31121;BME280;17770;45.966;13.632;2023-04-26T05:45:38;100359.47;;;18.00;55.84
31121;BME280;17770;45.966;13.632;2023-04-26T05:48:04;100360.34;;;18.01;55.74
31121;BME280;17770;45.966;13.632;2023-04-26T05:50:30;100358.63;;;18.00;55.88
31121;BME280;17770;45.966;13.632;2023-04-26T05:52:57;100367.41;;;17.99;55.69
31121;BME280;17770;45.966;13.632;2023-04-26T05:55:23;100367.50;;;17.97;55.71
31121;BME280;17770;45.966;13.632;2023-04-26T05:57:49;100363.94;;;17.98;55.73
31121;BME280;17770;45.966;13.632;2023-04-26T06:00:15;100359.66;;;17.97;55.46
31121;BME280;17770;45.966;13.632;2023-04-26T06:02:43;100362.38;;;17.96;55.70
31121;BME280;17770;45.966;13.632;2023-04-26T06:05:14;100370.09;;;17.97;55.93
31121;BME280;17770;45.966;13.632;2023-04-26T06:07:41;100366.66;;;17.97;55.82
31121;BME280;17770;45.966;13.632;2023-04-26T06:10:07;100373.56;;;17.98;55.58
31121;BME280;17770;45.966;13.632;2023-04-26T06:12:33;100368.44;;;17.96;55.56
31121;BME280;17770;45.966;13.632;2023-04-26T06:14:59;100383.25;;;17.96;55.87
31121;BME280;17770;45.966;13.632;2023-04-26T06:17:27;100383.34;;;17.94;55.61
31121;BME280;17770;45.966;13.632;2023-04-26T06:19:53;100371.13;;;17.95;55.77
31121;BME280;17770;45.966;13.632;2023-04-26T06:22:19;100376.34;;;17.95;55.42
31121;BME280;17770;45.966;13.632;2023-04-26T06:24:45;100385.97;;;17.94;55.77
31121;BME280;17770;45.966;13.632;2023-04-26T06:27:11;100382.50;;;17.94;55.58
31121;BME280;17770;45.966;13.632;2023-04-26T06:29:39;100381.56;;;17.95;55.55
31121;BME280;17770;45.966;13.632;2023-04-26T06:32:06;100383.44;;;17.93;55.38
31121;BME280;17770;45.966;13.632;2023-04-26T06:34:33;100386.03;;;17.93;55.66
31121;BME280;17770;45.966;13.632;2023-04-26T06:36:59;100385.09;;;17.94;55.60
31121;BME280;17770;45.966;13.632;2023-04-26T06:39:26;100388.66;;;17.93;55.50
31121;BME280;17770;45.966;13.632;2023-04-26T06:41:52;100389.56;;;17.92;55.37
31121;BME280;17770;45.966;13.632;2023-04-26T06:44:25;100393.13;;;17.91;55.39
31121;BME280;17770;45.966;13.632;2023-04-26T06:46:58;100395.72;;;17.91;55.41
31121;BME280;17770;45.966;13.632;2023-04-26T06:49:24;100399.19;;;17.91;55.51
31121;BME280;17770;45.966;13.632;2023-04-26T06:51:51;100402.63;;;17.92;55.26
31121;BME280;17770;45.966;13.632;2023-04-26T06:54:17;100397.50;;;17.90;55.18
31121;BME280;17770;45.966;13.632;2023-04-26T06:56:43;100392.19;;;17.92;55.12
31121;BME280;17770;45.966;13.632;2023-04-26T06:59:09;100397.41;;;17.92;55.26
31121;BME280;17770;45.966;13.632;2023-04-26T07:01:35;100394.78;;;17.92;55.13
31121;BME280;17770;45.966;13.632;2023-04-26T07:04:02;100397.41;;;17.92;55.26
31121;BME280;17770;45.966;13.632;2023-04-26T07:06:28;100391.38;;;17.91;55.13
31121;BME280;17770;45.966;13.632;2023-04-26T07:08:54;100396.47;;;17.93;55.34
31121;BME280;17770;45.966;13.632;2023-04-26T07:11:20;100386.13;;;17.91;55.23
31121;BME280;17770;45.966;13.632;2023-04-26T07:13:46;100388.66;;;17.93;55.18
31121;BME280;17770;45.966;13.632;2023-04-26T07:16:12;100389.56;;;17.92;55.40
31121;BME280;17770;45.966;13.632;2023-04-26T07:18:38;100393.97;;;17.91;55.30
31121;BME280;17770;45.966;13.632;2023-04-26T07:21:05;100389.47;;;17.93;55.28
31121;BME280;17770;45.966;13.632;2023-04-26T07:23:30;100386.88;;;17.93;55.28
31121;BME280;17770;45.966;13.632;2023-04-26T07:25:56;100395.63;;;17.92;55.11
31121;BME280;17770;45.966;13.632;2023-04-26T07:28:22;100393.97;;;17.91;55.22
31121;BME280;17770;45.966;13.632;2023-04-26T07:30:48;100393.03;;;17.92;55.26
31121;BME280;17770;45.966;13.632;2023-04-26T07:33:14;100395.63;;;17.92;55.25
31121;BME280;17770;45.966;13.632;2023-04-26T07:35:42;100388.66;;;17.93;56.12
31121;BME280;17770;45.966;13.632;2023-04-26T07:38:07;100391.25;;;17.93;56.32
31121;BME280;17770;45.966;13.632;2023-04-26T07:40:34;100397.06;;;17.98;56.03
31121;BME280;17770;45.966;13.632;2023-04-26T07:43:01;100398.72;;;17.99;56.20
31121;BME280;17770;45.966;13.632;2023-04-26T07:45:27;100407.31;;;18.01;56.06
31121;BME280;17770;45.966;13.632;2023-04-26T07:47:52;100403.75;;;18.02;56.36
31121;BME280;17770;45.966;13.632;2023-04-26T07:50:19;100397.53;;;18.04;56.23
31121;BME280;17770;45.966;13.632;2023-04-26T07:52:45;100402.66;;;18.06;56.33
31121;BME280;17770;45.966;13.632;2023-04-26T07:55:11;100404.22;;;18.08;56.61
31121;BME280;17770;45.966;13.632;2023-04-26T07:57:37;100414.38;;;18.13;56.49
31121;BME280;17770;45.966;13.632;2023-04-26T08:00:04;100405.66;;;18.14;56.38
31121;BME280;17770;45.966;13.632;2023-04-26T08:02:40;100408.16;;;18.15;56.34
31121;BME280;17770;45.966;13.632;2023-04-26T08:05:06;100412.34;;;18.18;56.03
31121;BME280;17770;45.966;13.632;2023-04-26T08:07:32;100412.28;;;18.19;55.97
31121;BME280;17770;45.966;13.632;2023-04-26T08:09:58;100415.72;;;18.20;56.07
31121;BME280;17770;45.966;13.632;2023-04-26T08:12:23;100426.06;;;18.21;56.14
31121;BME280;17770;45.966;13.632;2023-04-26T08:14:49;100420.09;;;18.19;56.24
31121;BME280;17770;45.966;13.632;2023-04-26T08:17:15;100414.78;;;18.21;55.89
31121;BME280;17770;45.966;13.632;2023-04-26T08:19:41;100416.47;;;18.22;56.11
31121;BME280;17770;45.966;13.632;2023-04-26T08:22:07;100418.13;;;18.23;56.04
31121;BME280;17770;45.966;13.632;2023-04-26T08:24:33;100414.69;;;18.23;56.12
31121;BME280;17770;45.966;13.632;2023-04-26T08:26:59;100419.91;;;18.23;55.87
31121;BME280;17770;45.966;13.632;2023-04-26T08:29:25;100425.16;;;18.23;55.25
31121;BME280;17770;45.966;13.632;2023-04-26T08:31:52;100418.06;;;18.25;55.30
31121;BME280;17770;45.966;13.632;2023-04-26T08:34:18;100419.72;;;18.26;55.64
31121;BME280;17770;45.966;13.632;2023-04-26T08:36:44;100426.53;;;18.28;55.69
31121;BME280;17770;45.966;13.632;2023-04-26T08:39:10;100420.41;;;18.29;55.43
31121;BME280;17770;45.966;13.632;2023-04-26T08:41:44;100429.88;;;18.30;55.40
31121;BME280;17770;45.966;13.632;2023-04-26T08:44:10;100429.69;;;18.33;55.32
31121;BME280;17770;45.966;13.632;2023-04-26T08:46:54;100435.88;;;18.32;55.57
31121;BME280;17770;45.966;13.632;2023-04-26T08:49:35;100431.50;;;18.33;55.61
31121;BME280;17770;45.966;13.632;2023-04-26T08:52:03;100434.81;;;18.35;55.38
31121;BME280;17770;45.966;13.632;2023-04-26T08:54:33;100440.91;;;18.35;55.32
31121;BME280;17770;45.966;13.632;2023-04-26T08:56:59;100430.38;;;18.37;55.46
31121;BME280;17770;45.966;13.632;2023-04-26T08:59:27;100435.50;;;18.38;55.41
31121;BME280;17770;45.966;13.632;2023-04-26T09:01:53;100444.00;;;18.42;55.36
31121;BME280;17770;45.966;13.632;2023-04-26T09:04:19;100438.03;;;18.40;55.36
31121;BME280;17770;45.966;13.632;2023-04-26T09:06:45;100436.19;;;18.42;55.22
31121;BME280;17770;45.966;13.632;2023-04-26T09:09:12;100435.28;;;18.43;55.04
31121;BME280;17770;45.966;13.632;2023-04-26T09:11:57;100439.84;;;18.39;54.46
31121;BME280;17770;45.966;13.632;2023-04-26T09:14:24;100440.56;;;18.41;54.58
31121;BME280;17770;45.966;13.632;2023-04-26T09:16:51;100437.03;;;18.42;55.14
31121;BME280;17770;45.966;13.632;2023-04-26T09:19:29;100442.06;;;18.45;54.41
31121;BME280;17770;45.966;13.632;2023-04-26T09:21:58;100436.00;;;18.45;54.91
31121;BME280;17770;45.966;13.632;2023-04-26T09:24:25;100434.97;;;18.47;54.98
31121;BME280;17770;45.966;13.632;2023-04-26T09:27:00;100435.81;;;18.48;55.08
31121;BME280;17770;45.966;13.632;2023-04-26T09:29:27;100433.94;;;18.50;54.91
31121;BME280;17770;45.966;13.632;2023-04-26T09:31:53;100431.16;;;18.53;54.58
31121;BME280;17770;45.966;13.632;2023-04-26T09:34:19;100429.38;;;18.53;54.76
31121;BME280;17770;45.966;13.632;2023-04-26T09:36:49;100430.22;;;18.54;55.02
31121;BME280;17770;45.966;13.632;2023-04-26T09:39:28;100426.66;;;18.55;54.95
31121;BME280;17770;45.966;13.632;2023-04-26T09:41:56;100421.44;;;18.55;54.99
31121;BME280;17770;45.966;13.632;2023-04-26T09:44:22;100424.81;;;18.57;54.93
31121;BME280;17770;45.966;13.632;2023-04-26T09:46:58;100419.47;;;18.58;55.10
31121;BME280;17770;45.966;13.632;2023-04-26T09:49:25;100422.28;;;18.55;55.19
31121;BME280;17770;45.966;13.632;2023-04-26T09:52:04;100418.00;;;18.54;55.31
31121;BME280;17770;45.966;13.632;2023-04-26T09:55:04;100418.81;;;18.55;55.11
31121;BME280;17770;45.966;13.632;2023-04-26T09:57:22;100417.06;;;18.55;55.76
31121;BME280;17770;45.966;13.632;2023-04-26T09:59:49;100413.41;;;18.58;55.53
31121;BME280;17770;45.966;13.632;2023-04-26T10:02:19;100413.34;;;18.59;55.54
31121;BME280;17770;45.966;13.632;2023-04-26T10:04:47;100418.47;;;18.61;55.58
31121;BME280;17770;45.966;13.632;2023-04-26T10:07:14;100409.69;;;18.62;55.68
31121;BME280;17770;45.966;13.632;2023-04-26T10:09:40;100407.84;;;18.64;55.69
31121;BME280;17770;45.966;13.632;2023-04-26T10:12:08;100410.34;;;18.65;55.71
31121;BME280;17770;45.966;13.632;2023-04-26T10:14:35;100409.41;;;18.66;55.88
31121;BME280;17770;45.966;13.632;2023-04-26T10:17:02;100407.53;;;18.68;55.99
31121;BME280;17770;45.966;13.632;2023-04-26T10:19:28;100413.50;;;18.70;55.93
31121;BME280;17770;45.966;13.632;2023-04-26T10:21:54;100408.19;;;18.72;55.65
31121;BME280;17770;45.966;13.632;2023-04-26T10:24:23;100398.50;;;18.74;55.95
31121;BME280;17770;45.966;13.632;2023-04-26T10:26:49;100409.69;;;18.76;56.10
31121;BME280;17770;45.966;13.632;2023-04-26T10:29:19;100405.19;;;18.78;56.13
31121;BME280;17770;45.966;13.632;2023-04-26T10:34:27;100401.56;;;18.80;56.14
31121;BME280;17770;45.966;13.632;2023-04-26T10:39:34;100406.59;;;18.83;56.55
31121;BME280;17770;45.966;13.632;2023-04-26T10:44:54;100400.31;;;18.86;56.38
31121;BME280;17770;45.966;13.632;2023-04-26T10:47:22;100401.91;;;18.88;56.61
31121;BME280;17770;45.966;13.632;2023-04-26T10:49:51;100399.31;;;18.88;56.53
31121;BME280;17770;45.966;13.632;2023-04-26T10:52:18;100413.13;;;18.90;56.54
31121;BME280;17770;45.966;13.632;2023-04-26T10:54:45;100406.94;;;18.91;56.49
31121;BME280;17770;45.966;13.632;2023-04-26T10:57:11;100406.75;;;18.94;56.50
31121;BME280;17770;45.966;13.632;2023-04-26T10:59:37;100412.81;;;18.95;56.85
31121;BME280;17770;45.966;13.632;2023-04-26T11:02:03;100396.94;;;18.98;56.23
31121;BME280;17770;45.966;13.632;2023-04-26T11:04:49;100401.31;;;18.97;56.36
31121;BME280;17770;45.966;13.632;2023-04-26T11:07:15;100398.63;;;18.99;56.84
31121;BME280;17770;45.966;13.632;2023-04-26T11:09:47;100397.59;;;19.01;56.41
31121;BME280;17770;45.966;13.632;2023-04-26T11:12:13;100392.25;;;19.03;56.83
31121;BME280;17770;45.966;13.632;2023-04-26T11:14:40;100392.16;;;19.04;56.93
31121;BME280;17770;45.966;13.632;2023-04-26T11:17:07;100398.13;;;19.06;56.89
31121;BME280;17770;45.966;13.632;2023-04-26T11:19:33;100389.25;;;19.09;56.98
31121;BME280;17770;45.966;13.632;2023-04-26T11:21:59;100397.00;;;19.10;56.64
31121;BME280;17770;45.966;13.632;2023-04-26T11:24:26;100384.56;;;19.14;56.29
31121;BME280;17770;45.966;13.632;2023-04-26T11:26:52;100392.31;;;19.15;56.78
31121;BME280;17770;45.966;13.632;2023-04-26T11:29:19;100380.81;;;19.18;57.02
31121;BME280;17770;45.966;13.632;2023-04-26T11:31:55;100379.69;;;19.22;56.41
31121;BME280;17770;45.966;13.632;2023-04-26T11:36:56;100385.66;;;19.24;56.83
31121;BME280;17770;45.966;13.632;2023-04-26T11:39:22;100383.88;;;19.24;57.22
31121;BME280;17770;45.966;13.632;2023-04-26T11:41:48;100382.09;;;19.25;58.01
31121;BME280;17770;45.966;13.632;2023-04-26T11:44:17;100382.00;;;19.26;58.42
31121;BME280;17770;45.966;13.632;2023-04-26T11:46:44;100384.53;;;19.28;57.48
31121;BME280;17770;45.966;13.632;2023-04-26T11:49:11;100380.13;;;19.28;57.30
31121;BME280;17770;45.966;13.632;2023-04-26T11:51:37;100390.53;;;19.30;58.55
31121;BME280;17770;45.966;13.632;2023-04-26T11:54:02;100386.97;;;19.31;59.01
31121;BME280;17770;45.966;13.632;2023-04-26T11:56:28;100389.47;;;19.32;58.01
31121;BME280;17770;45.966;13.632;2023-04-26T11:58:55;100390.44;;;19.31;57.39
31121;BME280;17770;45.966;13.632;2023-04-26T12:01:26;100393.78;;;19.33;58.46
31121;BME280;17770;45.966;13.632;2023-04-26T12:03:55;100386.75;;;19.34;58.91
31121;BME280;17770;45.966;13.632;2023-04-26T12:06:28;100387.59;;;19.34;58.24
31121;BME280;17770;45.966;13.632;2023-04-26T12:08:55;100392.84;;;19.34;57.88
31121;BME280;17770;45.966;13.632;2023-04-26T12:11:21;100396.41;;;19.33;55.90
31121;BME280;17770;45.966;13.632;2023-04-26T12:13:47;100389.47;;;19.32;56.19
31121;BME280;17770;45.966;13.632;2023-04-26T12:16:13;100383.50;;;19.30;56.23
31121;BME280;17770;45.966;13.632;2023-04-26T12:18:39;100389.47;;;19.32;55.97
31121;BME280;17770;45.966;13.632;2023-04-26T12:21:05;100384.16;;;19.34;56.57
31121;BME280;17770;45.966;13.632;2023-04-26T12:23:35;100379.66;;;19.36;56.79
31121;BME280;17770;45.966;13.632;2023-04-26T12:26:01;100380.41;;;19.38;57.26
31121;BME280;17770;45.966;13.632;2023-04-26T12:28:28;100382.19;;;19.37;57.00
31121;BME280;17770;45.966;13.632;2023-04-26T12:30:54;100388.25;;;19.38;56.29
31121;BME280;17770;45.966;13.632;2023-04-26T12:33:20;100382.06;;;19.39;56.85
31121;BME280;17770;45.966;13.632;2023-04-26T12:35:48;100382.81;;;19.41;56.76
31121;BME280;17770;45.966;13.632;2023-04-26T12:38:14;100387.19;;;19.40;56.79
31121;BME280;17770;45.966;13.632;2023-04-26T12:40:40;100380.09;;;19.42;56.88
31121;BME280;17770;45.966;13.632;2023-04-26T12:43:06;100377.47;;;19.42;56.60
31121;BME280;17770;45.966;13.632;2023-04-26T12:45:32;100372.03;;;19.45;56.25
31121;BME280;17770;45.966;13.632;2023-04-26T12:47:58;100378.00;;;19.48;56.93
31121;BME280;17770;45.966;13.632;2023-04-26T12:50:24;100375.09;;;19.52;58.50